Hodge, Louisiana
Current Conditions -  °F | °C
As of 9:55 PM on Wednesday 22 Oct 2014 (Local Time) from KRSN Reporting Station
Clear Clear  
Wind Chill: 54°   Ceiling: Unl
Heat Index: 54°   Visibility: 10mi
Dew Point: 53°   Wind: 0mph
Humidity: 99%   Direction: NA
Pressure: 30.19"   Gusts: NA
Location:  32.28°N, 92.72°W
Report Text: KRSN 230255Z AUTO 00000KT 10SM CLR 12/12 A3019 RMK AO2 T01210119
Loading
Personal Weather Stations






























Interactive Weather Map
Tropical Storm Tracking
New forecast layout! Learn more

10-Day Weather Forecast

Advertisements
Track Severe Weather on mobile